sensor_id;sensor_type;location;lat;lon;timestamp;P1;durP1;ratioP1;P2;durP2;ratioP2
53145;SDS011;39042;53.150;5.898;2024-01-25T00:01:59;37.07;;;5.50;;
53145;SDS011;39042;53.150;5.898;2024-01-25T00:04:24;34.30;;;5.20;;
53145;SDS011;39042;53.150;5.898;2024-01-25T00:06:50;42.90;;;5.50;;
53145;SDS011;39042;53.150;5.898;2024-01-25T00:09:16;39.87;;;4.77;;
53145;SDS011;39042;53.150;5.898;2024-01-25T00:11:42;33.90;;;5.20;;
53145;SDS011;39042;53.150;5.898;2024-01-25T00:14:08;34.83;;;5.90;;
53145;SDS011;39042;53.150;5.898;2024-01-25T00:16:34;38.80;;;4.00;;
53145;SDS011;39042;53.150;5.898;2024-01-25T00:19:00;34.63;;;5.37;;
53145;SDS011;39042;53.150;5.898;2024-01-25T00:21:25;32.20;;;4.80;;
53145;SDS011;39042;53.150;5.898;2024-01-25T00:23:51;40.73;;;6.50;;
53145;SDS011;39042;53.150;5.898;2024-01-25T00:26:17;37.63;;;4.67;;
53145;SDS011;39042;53.150;5.898;2024-01-25T00:28:43;45.33;;;5.17;;
53145;SDS011;39042;53.150;5.898;2024-01-25T00:31:09;33.00;;;4.47;;
53145;SDS011;39042;53.150;5.898;2024-01-25T00:33:34;34.23;;;4.07;;
53145;SDS011;39042;53.150;5.898;2024-01-25T00:36:00;56.23;;;7.67;;
53145;SDS011;39042;53.150;5.898;2024-01-25T00:38:26;33.28;;;5.07;;
53145;SDS011;39042;53.150;5.898;2024-01-25T00:40:52;34.15;;;4.80;;
53145;SDS011;39042;53.150;5.898;2024-01-25T00:43:18;29.73;;;4.03;;
53145;SDS011;39042;53.150;5.898;2024-01-25T00:45:44;31.63;;;4.97;;
53145;SDS011;39042;53.150;5.898;2024-01-25T00:48:11;38.42;;;4.78;;
53145;SDS011;39042;53.150;5.898;2024-01-25T00:50:37;44.40;;;5.90;;
53145;SDS011;39042;53.150;5.898;2024-01-25T00:53:03;38.15;;;5.90;;
53145;SDS011;39042;53.150;5.898;2024-01-25T00:55:30;35.90;;;5.78;;
53145;SDS011;39042;53.150;5.898;2024-01-25T00:57:55;46.20;;;5.47;;
53145;SDS011;39042;53.150;5.898;2024-01-25T01:00:22;36.05;;;5.97;;
53145;SDS011;39042;53.150;5.898;2024-01-25T01:02:48;37.67;;;5.10;;
53145;SDS011;39042;53.150;5.898;2024-01-25T01:05:14;40.45;;;6.15;;
53145;SDS011;39042;53.150;5.898;2024-01-25T01:07:42;49.45;;;6.15;;
53145;SDS011;39042;53.150;5.898;2024-01-25T01:10:08;35.58;;;5.15;;
53145;SDS011;39042;53.150;5.898;2024-01-25T01:12:34;43.97;;;6.53;;
53145;SDS011;39042;53.150;5.898;2024-01-25T01:15:01;33.53;;;7.03;;
53145;SDS011;39042;53.150;5.898;2024-01-25T01:17:27;39.80;;;5.77;;
53145;SDS011;39042;53.150;5.898;2024-01-25T01:19:53;35.67;;;5.05;;
53145;SDS011;39042;53.150;5.898;2024-01-25T01:22:19;46.20;;;6.28;;
53145;SDS011;39042;53.150;5.898;2024-01-25T01:24:44;35.13;;;5.87;;
53145;SDS011;39042;53.150;5.898;2024-01-25T01:27:10;36.73;;;6.40;;
53145;SDS011;39042;53.150;5.898;2024-01-25T01:29:36;36.07;;;5.73;;
53145;SDS011;39042;53.150;5.898;2024-01-25T01:32:02;40.97;;;6.93;;
53145;SDS011;39042;53.150;5.898;2024-01-25T01:34:28;36.95;;;6.25;;
53145;SDS011;39042;53.150;5.898;2024-01-25T01:36:54;35.73;;;5.27;;
53145;SDS011;39042;53.150;5.898;2024-01-25T01:39:20;43.90;;;5.60;;
53145;SDS011;39042;53.150;5.898;2024-01-25T01:41:49;40.50;;;6.33;;
53145;SDS011;39042;53.150;5.898;2024-01-25T01:44:15;39.13;;;5.78;;
53145;SDS011;39042;53.150;5.898;2024-01-25T01:46:41;47.93;;;5.93;;
53145;SDS011;39042;53.150;5.898;2024-01-25T01:49:08;40.13;;;6.05;;
53145;SDS011;39042;53.150;5.898;2024-01-25T01:51:37;40.63;;;4.78;;
53145;SDS011;39042;53.150;5.898;2024-01-25T01:54:05;43.08;;;6.05;;
53145;SDS011;39042;53.150;5.898;2024-01-25T01:56:32;43.38;;;6.97;;
53145;SDS011;39042;53.150;5.898;2024-01-25T01:59:02;41.72;;;5.68;;
53145;SDS011;39042;53.150;5.898;2024-01-25T02:01:30;36.25;;;5.85;;
53145;SDS011;39042;53.150;5.898;2024-01-25T02:03:56;41.35;;;6.32;;
53145;SDS011;39042;53.150;5.898;2024-01-25T02:06:23;32.83;;;5.80;;
53145;SDS011;39042;53.150;5.898;2024-01-25T02:08:49;42.50;;;7.07;;
53145;SDS011;39042;53.150;5.898;2024-01-25T02:11:19;33.38;;;5.38;;
53145;SDS011;39042;53.150;5.898;2024-01-25T02:13:45;35.33;;;5.22;;
53145;SDS011;39042;53.150;5.898;2024-01-25T02:16:12;39.15;;;5.53;;
53145;SDS011;39042;53.150;5.898;2024-01-25T02:18:39;38.08;;;4.78;;
53145;SDS011;39042;53.150;5.898;2024-01-25T02:21:06;42.28;;;6.07;;
53145;SDS011;39042;53.150;5.898;2024-01-25T02:23:32;35.37;;;5.13;;
53145;SDS011;39042;53.150;5.898;2024-01-25T02:25:58;44.07;;;5.87;;
53145;SDS011;39042;53.150;5.898;2024-01-25T02:28:23;35.53;;;4.93;;
53145;SDS011;39042;53.150;5.898;2024-01-25T02:30:49;41.23;;;5.63;;
53145;SDS011;39042;53.150;5.898;2024-01-25T02:33:15;38.93;;;5.27;;
53145;SDS011;39042;53.150;5.898;2024-01-25T02:35:41;38.33;;;5.30;;
53145;SDS011;39042;53.150;5.898;2024-01-25T02:38:07;35.70;;;5.13;;
53145;SDS011;39042;53.150;5.898;2024-01-25T02:40:33;33.28;;;5.50;;
53145;SDS011;39042;53.150;5.898;2024-01-25T02:42:59;43.53;;;5.97;;
53145;SDS011;39042;53.150;5.898;2024-01-25T02:45:25;37.57;;;5.83;;
53145;SDS011;39042;53.150;5.898;2024-01-25T02:47:50;39.93;;;5.13;;
53145;SDS011;39042;53.150;5.898;2024-01-25T02:50:16;41.30;;;6.60;;
53145;SDS011;39042;53.150;5.898;2024-01-25T02:52:42;35.50;;;4.90;;
53145;SDS011;39042;53.150;5.898;2024-01-25T02:55:08;24.67;;;4.53;;
53145;SDS011;39042;53.150;5.898;2024-01-25T02:57:34;28.63;;;4.90;;
53145;SDS011;39042;53.150;5.898;2024-01-25T02:59:59;44.23;;;6.33;;
53145;SDS011;39042;53.150;5.898;2024-01-25T03:02:26;39.92;;;6.00;;
53145;SDS011;39042;53.150;5.898;2024-01-25T03:04:51;40.13;;;7.03;;
53145;SDS011;39042;53.150;5.898;2024-01-25T03:07:17;51.67;;;6.97;;
53145;SDS011;39042;53.150;5.898;2024-01-25T03:09:43;42.38;;;5.70;;
53145;SDS011;39042;53.150;5.898;2024-01-25T03:12:09;41.27;;;5.57;;
53145;SDS011;39042;53.150;5.898;2024-01-25T03:14:35;39.92;;;5.65;;
53145;SDS011;39042;53.150;5.898;2024-01-25T03:17:01;34.80;;;4.77;;
53145;SDS011;39042;53.150;5.898;2024-01-25T03:19:27;30.38;;;4.47;;
53145;SDS011;39042;53.150;5.898;2024-01-25T03:21:53;38.63;;;5.10;;
53145;SDS011;39042;53.150;5.898;2024-01-25T03:24:23;42.67;;;5.45;;
53145;SDS011;39042;53.150;5.898;2024-01-25T03:26:50;41.72;;;6.80;;
53145;SDS011;39042;53.150;5.898;2024-01-25T03:29:15;46.85;;;6.15;;
53145;SDS011;39042;53.150;5.898;2024-01-25T03:31:41;32.77;;;4.17;;
53145;SDS011;39042;53.150;5.898;2024-01-25T03:34:07;33.23;;;4.37;;
53145;SDS011;39042;53.150;5.898;2024-01-25T03:36:33;41.23;;;5.87;;
53145;SDS011;39042;53.150;5.898;2024-01-25T03:38:59;30.25;;;4.13;;
53145;SDS011;39042;53.150;5.898;2024-01-25T03:41:25;35.40;;;6.17;;
53145;SDS011;39042;53.150;5.898;2024-01-25T03:43:51;41.45;;;5.60;;
53145;SDS011;39042;53.150;5.898;2024-01-25T03:46:17;35.60;;;5.13;;
53145;SDS011;39042;53.150;5.898;2024-01-25T03:48:43;48.17;;;5.83;;
53145;SDS011;39042;53.150;5.898;2024-01-25T03:51:09;41.15;;;6.07;;
53145;SDS011;39042;53.150;5.898;2024-01-25T03:53:35;45.20;;;7.00;;
53145;SDS011;39042;53.150;5.898;2024-01-25T03:56:00;39.00;;;5.13;;
53145;SDS011;39042;53.150;5.898;2024-01-25T03:58:26;46.57;;;5.90;;
53145;SDS011;39042;53.150;5.898;2024-01-25T04:00:52;38.33;;;5.30;;
53145;SDS011;39042;53.150;5.898;2024-01-25T04:03:18;30.58;;;4.85;;
53145;SDS011;39042;53.150;5.898;2024-01-25T04:05:44;48.83;;;6.43;;
53145;SDS011;39042;53.150;5.898;2024-01-25T04:08:10;41.00;;;6.03;;
53145;SDS011;39042;53.150;5.898;2024-01-25T04:10:35;53.27;;;5.90;;
53145;SDS011;39042;53.150;5.898;2024-01-25T04:13:01;41.57;;;6.63;;
53145;SDS011;39042;53.150;5.898;2024-01-25T04:15:29;49.08;;;6.25;;
53145;SDS011;39042;53.150;5.898;2024-01-25T04:17:56;43.42;;;5.55;;
53145;SDS011;39042;53.150;5.898;2024-01-25T04:20:22;46.35;;;6.28;;
53145;SDS011;39042;53.150;5.898;2024-01-25T04:22:47;35.30;;;6.17;;
53145;SDS011;39042;53.150;5.898;2024-01-25T04:25:13;45.30;;;6.17;;
53145;SDS011;39042;53.150;5.898;2024-01-25T04:30:06;37.80;;;5.70;;
53145;SDS011;39042;53.150;5.898;2024-01-25T04:34:59;49.10;;;6.18;;
53145;SDS011;39042;53.150;5.898;2024-01-25T04:37:24;41.97;;;5.77;;
53145;SDS011;39042;53.150;5.898;2024-01-25T04:39:50;51.77;;;5.83;;
53145;SDS011;39042;53.150;5.898;2024-01-25T04:42:16;45.63;;;5.37;;
53145;SDS011;39042;53.150;5.898;2024-01-25T04:44:42;44.77;;;6.80;;
53145;SDS011;39042;53.150;5.898;2024-01-25T04:47:08;41.77;;;5.27;;
53145;SDS011;39042;53.150;5.898;2024-01-25T04:49:35;38.38;;;6.22;;
53145;SDS011;39042;53.150;5.898;2024-01-25T04:52:01;45.70;;;6.60;;
53145;SDS011;39042;53.150;5.898;2024-01-25T04:54:27;42.72;;;6.65;;
53145;SDS011;39042;53.150;5.898;2024-01-25T04:56:53;55.80;;;7.63;;
53145;SDS011;39042;53.150;5.898;2024-01-25T04:59:20;55.40;;;6.82;;
53145;SDS011;39042;53.150;5.898;2024-01-25T05:01:46;46.10;;;5.60;;
53145;SDS011;39042;53.150;5.898;2024-01-25T05:04:11;38.83;;;5.47;;
53145;SDS011;39042;53.150;5.898;2024-01-25T05:06:37;42.53;;;6.40;;
53145;SDS011;39042;53.150;5.898;2024-01-25T05:09:03;43.35;;;6.75;;
53145;SDS011;39042;53.150;5.898;2024-01-25T05:11:29;39.13;;;4.70;;
53145;SDS011;39042;53.150;5.898;2024-01-25T05:13:55;42.47;;;5.83;;
53145;SDS011;39042;53.150;5.898;2024-01-25T05:16:21;39.67;;;6.57;;
53145;SDS011;39042;53.150;5.898;2024-01-25T05:18:47;41.50;;;7.67;;
53145;SDS011;39042;53.150;5.898;2024-01-25T05:21:12;37.07;;;5.40;;
53145;SDS011;39042;53.150;5.898;2024-01-25T05:23:38;50.00;;;5.70;;
53145;SDS011;39042;53.150;5.898;2024-01-25T05:26:05;45.17;;;6.50;;
53145;SDS011;39042;53.150;5.898;2024-01-25T05:28:31;38.42;;;4.78;;
53145;SDS011;39042;53.150;5.898;2024-01-25T05:30:57;44.87;;;6.53;;
53145;SDS011;39042;53.150;5.898;2024-01-25T05:33:23;44.83;;;6.27;;
53145;SDS011;39042;53.150;5.898;2024-01-25T05:35:49;45.70;;;6.30;;
53145;SDS011;39042;53.150;5.898;2024-01-25T05:38:15;46.75;;;6.25;;
53145;SDS011;39042;53.150;5.898;2024-01-25T05:40:41;39.35;;;5.07;;
53145;SDS011;39042;53.150;5.898;2024-01-25T05:43:07;46.87;;;7.13;;
53145;SDS011;39042;53.150;5.898;2024-01-25T05:45:33;49.08;;;5.38;;
53145;SDS011;39042;53.150;5.898;2024-01-25T05:47:59;45.00;;;5.50;;
53145;SDS011;39042;53.150;5.898;2024-01-25T05:50:25;44.40;;;6.20;;
53145;SDS011;39042;53.150;5.898;2024-01-25T05:52:51;45.83;;;6.23;;
53145;SDS011;39042;53.150;5.898;2024-01-25T05:55:17;49.57;;;7.13;;
53145;SDS011;39042;53.150;5.898;2024-01-25T05:57:43;40.23;;;4.67;;
53145;SDS011;39042;53.150;5.898;2024-01-25T06:00:12;47.10;;;6.70;;
53145;SDS011;39042;53.150;5.898;2024-01-25T06:02:39;48.53;;;6.57;;
53145;SDS011;39042;53.150;5.898;2024-01-25T06:05:05;37.00;;;5.03;;
53145;SDS011;39042;53.150;5.898;2024-01-25T06:07:31;53.30;;;6.45;;
53145;SDS011;39042;53.150;5.898;2024-01-25T06:09:57;42.40;;;5.60;;
53145;SDS011;39042;53.150;5.898;2024-01-25T06:12:23;43.17;;;5.23;;
53145;SDS011;39042;53.150;5.898;2024-01-25T06:14:48;32.37;;;5.97;;
53145;SDS011;39042;53.150;5.898;2024-01-25T06:17:14;47.73;;;5.97;;
53145;SDS011;39042;53.150;5.898;2024-01-25T06:19:40;45.13;;;7.03;;
53145;SDS011;39042;53.150;5.898;2024-01-25T06:22:06;50.17;;;6.13;;
53145;SDS011;39042;53.150;5.898;2024-01-25T06:24:32;37.47;;;4.57;;
53145;SDS011;39042;53.150;5.898;2024-01-25T06:26:57;38.63;;;6.30;;
53145;SDS011;39042;53.150;5.898;2024-01-25T06:29:23;54.03;;;6.13;;
53145;SDS011;39042;53.150;5.898;2024-01-25T06:31:49;46.63;;;6.20;;
53145;SDS011;39042;53.150;5.898;2024-01-25T06:34:15;55.87;;;7.53;;
53145;SDS011;39042;53.150;5.898;2024-01-25T06:36:41;52.03;;;6.50;;
53145;SDS011;39042;53.150;5.898;2024-01-25T06:39:07;55.57;;;7.50;;
53145;SDS011;39042;53.150;5.898;2024-01-25T06:41:33;51.30;;;7.40;;
53145;SDS011;39042;53.150;5.898;2024-01-25T06:43:59;40.90;;;5.43;;
53145;SDS011;39042;53.150;5.898;2024-01-25T06:46:25;41.57;;;5.40;;
53145;SDS011;39042;53.150;5.898;2024-01-25T06:48:51;35.15;;;5.68;;
53145;SDS011;39042;53.150;5.898;2024-01-25T06:51:17;54.35;;;6.72;;
53145;SDS011;39042;53.150;5.898;2024-01-25T06:53:43;44.47;;;6.47;;
53145;SDS011;39042;53.150;5.898;2024-01-25T06:56:09;52.53;;;5.57;;
53145;SDS011;39042;53.150;5.898;2024-01-25T06:58:35;48.20;;;6.13;;
53145;SDS011;39042;53.150;5.898;2024-01-25T07:01:01;57.28;;;7.30;;
53145;SDS011;39042;53.150;5.898;2024-01-25T07:03:27;33.28;;;4.28;;
53145;SDS011;39042;53.150;5.898;2024-01-25T07:05:53;47.22;;;5.90;;
53145;SDS011;39042;53.150;5.898;2024-01-25T07:08:19;48.27;;;6.60;;
53145;SDS011;39042;53.150;5.898;2024-01-25T07:10:45;41.45;;;4.38;;
53145;SDS011;39042;53.150;5.898;2024-01-25T07:13:11;59.27;;;7.53;;
53145;SDS011;39042;53.150;5.898;2024-01-25T07:15:37;55.25;;;5.97;;
53145;SDS011;39042;53.150;5.898;2024-01-25T07:18:03;44.57;;;6.70;;
53145;SDS011;39042;53.150;5.898;2024-01-25T07:20:29;53.13;;;6.72;;
53145;SDS011;39042;53.150;5.898;2024-01-25T07:22:56;52.00;;;6.43;;
53145;SDS011;39042;53.150;5.898;2024-01-25T07:25:22;53.70;;;14.43;;
53145;SDS011;39042;53.150;5.898;2024-01-25T07:27:47;44.67;;;8.00;;
53145;SDS011;39042;53.150;5.898;2024-01-25T07:30:14;46.40;;;11.82;;
53145;SDS011;39042;53.150;5.898;2024-01-25T07:32:40;66.38;;;22.00;;
53145;SDS011;39042;53.150;5.898;2024-01-25T07:35:10;69.50;;;18.65;;
53145;SDS011;39042;53.150;5.898;2024-01-25T07:37:37;63.25;;;16.05;;
53145;SDS011;39042;53.150;5.898;2024-01-25T07:40:04;48.72;;;10.32;;
53145;SDS011;39042;53.150;5.898;2024-01-25T07:42:31;53.97;;;9.65;;
53145;SDS011;39042;53.150;5.898;2024-01-25T07:44:57;54.13;;;8.02;;
53145;SDS011;39042;53.150;5.898;2024-01-25T07:47:23;44.67;;;6.80;;
53145;SDS011;39042;53.150;5.898;2024-01-25T07:49:49;40.23;;;5.47;;
53145;SDS011;39042;53.150;5.898;2024-01-25T07:52:15;43.70;;;6.50;;
53145;SDS011;39042;53.150;5.898;2024-01-25T07:54:41;49.13;;;7.13;;
53145;SDS011;39042;53.150;5.898;2024-01-25T07:57:06;51.90;;;6.53;;
53145;SDS011;39042;53.150;5.898;2024-01-25T07:59:32;45.97;;;6.17;;
53145;SDS011;39042;53.150;5.898;2024-01-25T08:01:58;42.63;;;6.83;;
53145;SDS011;39042;53.150;5.898;2024-01-25T08:04:24;53.93;;;6.83;;
53145;SDS011;39042;53.150;5.898;2024-01-25T08:06:51;52.63;;;7.87;;
53145;SDS011;39042;53.150;5.898;2024-01-25T08:09:17;49.05;;;7.18;;
53145;SDS011;39042;53.150;5.898;2024-01-25T08:11:43;38.85;;;4.57;;
53145;SDS011;39042;53.150;5.898;2024-01-25T08:14:10;49.88;;;7.13;;
53145;SDS011;39042;53.150;5.898;2024-01-25T08:16:36;44.10;;;7.13;;
53145;SDS011;39042;53.150;5.898;2024-01-25T08:19:02;55.83;;;8.20;;
53145;SDS011;39042;53.150;5.898;2024-01-25T08:21:28;53.90;;;8.23;;
53145;SDS011;39042;53.150;5.898;2024-01-25T08:23:54;42.50;;;7.77;;
53145;SDS011;39042;53.150;5.898;2024-01-25T08:26:20;49.37;;;7.17;;
53145;SDS011;39042;53.150;5.898;2024-01-25T08:28:46;50.00;;;7.80;;
53145;SDS011;39042;53.150;5.898;2024-01-25T08:31:12;47.83;;;7.35;;
53145;SDS011;39042;53.150;5.898;2024-01-25T08:33:38;40.73;;;6.33;;
53145;SDS011;39042;53.150;5.898;2024-01-25T08:36:09;47.00;;;5.75;;
53145;SDS011;39042;53.150;5.898;2024-01-25T08:38:35;48.30;;;7.07;;
53145;SDS011;39042;53.150;5.898;2024-01-25T08:41:01;46.43;;;7.00;;
53145;SDS011;39042;53.150;5.898;2024-01-25T08:43:27;46.07;;;6.37;;
53145;SDS011;39042;53.150;5.898;2024-01-25T08:45:53;48.47;;;6.73;;
53145;SDS011;39042;53.150;5.898;2024-01-25T08:48:19;39.70;;;5.95;;
53145;SDS011;39042;53.150;5.898;2024-01-25T08:50:46;42.30;;;5.97;;
53145;SDS011;39042;53.150;5.898;2024-01-25T08:53:12;49.60;;;6.23;;
53145;SDS011;39042;53.150;5.898;2024-01-25T08:55:37;42.90;;;5.72;;
53145;SDS011;39042;53.150;5.898;2024-01-25T08:58:03;50.03;;;6.77;;
53145;SDS011;39042;53.150;5.898;2024-01-25T09:00:29;41.40;;;6.07;;
53145;SDS011;39042;53.150;5.898;2024-01-25T09:02:55;48.40;;;7.30;;
53145;SDS011;39042;53.150;5.898;2024-01-25T09:05:21;28.37;;;4.87;;
53145;SDS011;39042;53.150;5.898;2024-01-25T09:07:47;61.13;;;7.15;;
53145;SDS011;39042;53.150;5.898;2024-01-25T09:10:13;53.73;;;6.67;;
53145;SDS011;39042;53.150;5.898;2024-01-25T09:12:40;47.78;;;6.22;;
53145;SDS011;39042;53.150;5.898;2024-01-25T09:15:06;43.83;;;6.28;;
53145;SDS011;39042;53.150;5.898;2024-01-25T09:17:33;44.85;;;5.65;;
53145;SDS011;39042;53.150;5.898;2024-01-25T09:19:59;59.63;;;8.03;;
53145;SDS011;39042;53.150;5.898;2024-01-25T09:22:25;40.93;;;6.10;;
53145;SDS011;39042;53.150;5.898;2024-01-25T09:24:51;51.17;;;7.83;;
53145;SDS011;39042;53.150;5.898;2024-01-25T09:27:18;50.72;;;6.63;;
53145;SDS011;39042;53.150;5.898;2024-01-25T09:29:44;47.47;;;7.47;;
53145;SDS011;39042;53.150;5.898;2024-01-25T09:32:10;46.67;;;7.57;;
53145;SDS011;39042;53.150;5.898;2024-01-25T09:34:36;45.95;;;6.75;;
53145;SDS011;39042;53.150;5.898;2024-01-25T09:39:29;52.60;;;8.00;;
53145;SDS011;39042;53.150;5.898;2024-01-25T09:41:54;41.70;;;5.00;;
53145;SDS011;39042;53.150;5.898;2024-01-25T09:44:21;38.05;;;5.18;;
53145;SDS011;39042;53.150;5.898;2024-01-25T09:46:47;52.13;;;7.78;;
53145;SDS011;39042;53.150;5.898;2024-01-25T09:49:12;47.80;;;7.43;;
53145;SDS011;39042;53.150;5.898;2024-01-25T09:51:39;44.23;;;6.43;;
53145;SDS011;39042;53.150;5.898;2024-01-25T09:54:06;53.25;;;6.53;;
53145;SDS011;39042;53.150;5.898;2024-01-25T09:56:33;60.50;;;8.25;;
53145;SDS011;39042;53.150;5.898;2024-01-25T09:59:00;55.50;;;8.43;;
53145;SDS011;39042;53.150;5.898;2024-01-25T10:01:26;46.67;;;7.85;;
53145;SDS011;39042;53.150;5.898;2024-01-25T10:03:53;49.42;;;8.80;;
53145;SDS011;39042;53.150;5.898;2024-01-25T10:06:21;39.05;;;8.15;;
53145;SDS011;39042;53.150;5.898;2024-01-25T10:08:47;49.45;;;9.00;;
53145;SDS011;39042;53.150;5.898;2024-01-25T10:11:13;50.60;;;8.90;;
53145;SDS011;39042;53.150;5.898;2024-01-25T10:13:49;47.22;;;8.85;;
53145;SDS011;39042;53.150;5.898;2024-01-25T10:16:16;48.97;;;10.45;;
53145;SDS011;39042;53.150;5.898;2024-01-25T10:18:44;44.95;;;9.68;;
53145;SDS011;39042;53.150;5.898;2024-01-25T10:21:13;50.20;;;8.55;;
53145;SDS011;39042;53.150;5.898;2024-01-25T10:23:40;52.22;;;11.57;;
53145;SDS011;39042;53.150;5.898;2024-01-25T10:26:09;59.78;;;10.07;;
53145;SDS011;39042;53.150;5.898;2024-01-25T10:28:35;39.17;;;7.68;;
53145;SDS011;39042;53.150;5.898;2024-01-25T10:31:01;46.83;;;7.00;;
53145;SDS011;39042;53.150;5.898;2024-01-25T10:33:29;52.05;;;7.70;;
53145;SDS011;39042;53.150;5.898;2024-01-25T10:35:56;45.65;;;7.57;;
53145;SDS011;39042;53.150;5.898;2024-01-25T10:38:34;36.10;;;7.60;;
53145;SDS011;39042;53.150;5.898;2024-01-25T10:41:02;54.03;;;7.70;;
53145;SDS011;39042;53.150;5.898;2024-01-25T10:43:29;50.60;;;8.50;;
53145;SDS011;39042;53.150;5.898;2024-01-25T10:45:59;45.80;;;8.20;;
53145;SDS011;39042;53.150;5.898;2024-01-25T10:48:25;51.70;;;7.53;;
53145;SDS011;39042;53.150;5.898;2024-01-25T10:50:55;36.83;;;7.03;;
53145;SDS011;39042;53.150;5.898;2024-01-25T10:53:24;49.10;;;7.90;;
53145;SDS011;39042;53.150;5.898;2024-01-25T10:55:54;43.78;;;6.80;;
53145;SDS011;39042;53.150;5.898;2024-01-25T10:58:20;43.20;;;8.23;;
53145;SDS011;39042;53.150;5.898;2024-01-25T11:00:52;38.77;;;6.67;;
53145;SDS011;39042;53.150;5.898;2024-01-25T11:03:25;35.33;;;7.07;;
53145;SDS011;39042;53.150;5.898;2024-01-25T11:06:05;40.30;;;6.82;;
53145;SDS011;39042;53.150;5.898;2024-01-25T11:08:37;39.17;;;6.63;;
53145;SDS011;39042;53.150;5.898;2024-01-25T11:11:07;45.97;;;6.97;;
53145;SDS011;39042;53.150;5.898;2024-01-25T11:13:38;36.75;;;6.72;;
53145;SDS011;39042;53.150;5.898;2024-01-25T11:16:17;39.80;;;6.85;;
53145;SDS011;39042;53.150;5.898;2024-01-25T11:18:53;37.53;;;7.07;;
53145;SDS011;39042;53.150;5.898;2024-01-25T11:21:25;36.05;;;5.80;;
53145;SDS011;39042;53.150;5.898;2024-01-25T11:23:59;42.78;;;7.00;;
53145;SDS011;39042;53.150;5.898;2024-01-25T11:26:26;30.23;;;5.50;;
53145;SDS011;39042;53.150;5.898;2024-01-25T11:28:52;29.37;;;5.87;;
53145;SDS011;39042;53.150;5.898;2024-01-25T11:31:18;49.03;;;6.77;;
53145;SDS011;39042;53.150;5.898;2024-01-25T11:33:44;40.23;;;6.67;;
53145;SDS011;39042;53.150;5.898;2024-01-25T11:36:10;37.85;;;6.93;;
53145;SDS011;39042;53.150;5.898;2024-01-25T11:38:36;37.70;;;6.83;;
53145;SDS011;39042;53.150;5.898;2024-01-25T11:41:02;36.37;;;6.43;;
53145;SDS011;39042;53.150;5.898;2024-01-25T11:43:28;34.37;;;6.33;;
53145;SDS011;39042;53.150;5.898;2024-01-25T11:45:54;37.57;;;7.30;;
53145;SDS011;39042;53.150;5.898;2024-01-25T11:48:20;30.05;;;5.97;;
53145;SDS011;39042;53.150;5.898;2024-01-25T11:50:46;23.03;;;4.17;;
53145;SDS011;39042;53.150;5.898;2024-01-25T11:53:12;39.15;;;6.60;;
53145;SDS011;39042;53.150;5.898;2024-01-25T11:55:38;41.10;;;5.53;;
53145;SDS011;39042;53.150;5.898;2024-01-25T11:58:03;29.07;;;5.67;;
53145;SDS011;39042;53.150;5.898;2024-01-25T12:00:29;34.23;;;7.23;;
53145;SDS011;39042;53.150;5.898;2024-01-25T12:02:55;41.83;;;7.07;;
53145;SDS011;39042;53.150;5.898;2024-01-25T12:05:21;24.60;;;4.17;;
53145;SDS011;39042;53.150;5.898;2024-01-25T12:07:47;34.50;;;5.35;;
53145;SDS011;39042;53.150;5.898;2024-01-25T12:10:16;33.38;;;5.60;;
53145;SDS011;39042;53.150;5.898;2024-01-25T12:12:45;30.55;;;5.32;;
53145;SDS011;39042;53.150;5.898;2024-01-25T12:15:10;24.40;;;5.40;;
53145;SDS011;39042;53.150;5.898;2024-01-25T12:17:36;35.50;;;5.53;;
53145;SDS011;39042;53.150;5.898;2024-01-25T12:20:06;33.67;;;5.72;;
53145;SDS011;39042;53.150;5.898;2024-01-25T12:22:36;37.28;;;7.43;;
53145;SDS011;39042;53.150;5.898;2024-01-25T12:25:08;32.75;;;5.47;;
53145;SDS011;39042;53.150;5.898;2024-01-25T12:27:35;32.67;;;6.53;;
53145;SDS011;39042;53.150;5.898;2024-01-25T12:30:02;28.77;;;6.10;;
53145;SDS011;39042;53.150;5.898;2024-01-25T12:32:29;35.45;;;6.82;;
53145;SDS011;39042;53.150;5.898;2024-01-25T12:34:55;27.10;;;5.13;;
53145;SDS011;39042;53.150;5.898;2024-01-25T12:37:22;33.63;;;7.53;;
53145;SDS011;39042;53.150;5.898;2024-01-25T12:39:48;40.42;;;8.55;;
53145;SDS011;39042;53.150;5.898;2024-01-25T12:42:16;32.15;;;6.50;;
53145;SDS011;39042;53.150;5.898;2024-01-25T12:44:42;32.47;;;6.85;;
53145;SDS011;39042;53.150;5.898;2024-01-25T12:47:08;36.33;;;7.22;;
53145;SDS011;39042;53.150;5.898;2024-01-25T12:49:34;36.70;;;7.13;;
53145;SDS011;39042;53.150;5.898;2024-01-25T12:52:01;34.30;;;7.00;;
53145;SDS011;39042;53.150;5.898;2024-01-25T12:54:27;34.63;;;6.90;;
53145;SDS011;39042;53.150;5.898;2024-01-25T12:56:56;30.10;;;6.15;;
53145;SDS011;39042;53.150;5.898;2024-01-25T12:59:22;32.50;;;6.17;;
53145;SDS011;39042;53.150;5.898;2024-01-25T13:01:48;43.10;;;7.95;;
53145;SDS011;39042;53.150;5.898;2024-01-25T13:04:13;27.40;;;4.50;;
53145;SDS011;39042;53.150;5.898;2024-01-25T13:06:39;30.13;;;7.87;;
53145;SDS011;39042;53.150;5.898;2024-01-25T13:09:05;36.17;;;6.50;;
53145;SDS011;39042;53.150;5.898;2024-01-25T13:11:31;40.33;;;8.18;;
53145;SDS011;39042;53.150;5.898;2024-01-25T13:13:57;30.13;;;5.53;;
53145;SDS011;39042;53.150;5.898;2024-01-25T13:16:23;29.67;;;5.17;;
53145;SDS011;39042;53.150;5.898;2024-01-25T13:18:49;50.50;;;10.97;;
53145;SDS011;39042;53.150;5.898;2024-01-25T13:21:15;34.30;;;8.57;;
53145;SDS011;39042;53.150;5.898;2024-01-25T13:23:40;38.07;;;7.27;;
53145;SDS011;39042;53.150;5.898;2024-01-25T13:26:06;46.13;;;9.57;;
53145;SDS011;39042;53.150;5.898;2024-01-25T13:28:32;46.90;;;10.70;;
53145;SDS011;39042;53.150;5.898;2024-01-25T13:30:58;55.60;;;12.43;;
53145;SDS011;39042;53.150;5.898;2024-01-25T13:33:25;50.03;;;13.80;;
53145;SDS011;39042;53.150;5.898;2024-01-25T13:35:50;55.37;;;13.03;;
53145;SDS011;39042;53.150;5.898;2024-01-25T13:38:16;27.77;;;6.00;;
53145;SDS011;39042;53.150;5.898;2024-01-25T13:40:42;37.40;;;8.20;;
53145;SDS011;39042;53.150;5.898;2024-01-25T13:43:08;32.57;;;6.77;;
53145;SDS011;39042;53.150;5.898;2024-01-25T13:45:34;32.37;;;7.10;;
53145;SDS011;39042;53.150;5.898;2024-01-25T13:48:00;31.80;;;6.40;;
53145;SDS011;39042;53.150;5.898;2024-01-25T13:50:26;33.93;;;6.50;;
53145;SDS011;39042;53.150;5.898;2024-01-25T13:52:51;37.03;;;6.63;;
53145;SDS011;39042;53.150;5.898;2024-01-25T13:55:17;32.87;;;6.10;;
53145;SDS011;39042;53.150;5.898;2024-01-25T13:57:43;28.33;;;4.50;;
53145;SDS011;39042;53.150;5.898;2024-01-25T14:00:09;35.23;;;6.27;;
53145;SDS011;39042;53.150;5.898;2024-01-25T14:02:35;32.15;;;6.55;;
53145;SDS011;39042;53.150;5.898;2024-01-25T14:05:01;36.20;;;5.77;;
53145;SDS011;39042;53.150;5.898;2024-01-25T14:07:27;27.60;;;6.60;;
53145;SDS011;39042;53.150;5.898;2024-01-25T14:09:53;35.13;;;5.40;;
53145;SDS011;39042;53.150;5.898;2024-01-25T14:12:19;36.83;;;5.20;;
53145;SDS011;39042;53.150;5.898;2024-01-25T14:14:45;29.23;;;5.53;;
53145;SDS011;39042;53.150;5.898;2024-01-25T14:17:11;34.60;;;5.28;;
53145;SDS011;39042;53.150;5.898;2024-01-25T14:19:37;38.37;;;7.47;;
53145;SDS011;39042;53.150;5.898;2024-01-25T14:22:02;29.67;;;6.27;;
53145;SDS011;39042;53.150;5.898;2024-01-25T14:26:55;26.95;;;5.10;;
53145;SDS011;39042;53.150;5.898;2024-01-25T14:29:21;36.33;;;5.03;;
53145;SDS011;39042;53.150;5.898;2024-01-25T14:31:47;36.40;;;5.87;;
53145;SDS011;39042;53.150;5.898;2024-01-25T14:34:12;39.97;;;5.37;;
53145;SDS011;39042;53.150;5.898;2024-01-25T14:36:38;27.37;;;5.07;;
53145;SDS011;39042;53.150;5.898;2024-01-25T14:39:05;32.33;;;4.53;;